Higham Ferrers, United Kingdom
Current Conditions -  °F | °C
As of 4:50 AM on Friday 28 Nov 2014 (Local Time) from EGXT Reporting Station
Haze Haze  
Wind Chill: 45°   Ceiling: 200
Heat Index: 48°   Visibility: 2.2mi
Dew Point: 48°   Wind: 8mph
Humidity: 100%   Direction: 90°E
Pressure: 29.62"   Gusts: NA
Location:  52.31°N, 0.59°W
Report Text: EGXT 280450Z AUTO 09007KT 3600 BR BKN002/// SCT008/// BKN013/// 09/09 Q1003
Loading
Personal Weather Stations






























Interactive Weather Map New forecast layout! Learn more

10-Day Weather Forecast

Advertisements
Track Severe Weather on mobile